Overview Statistics Trail Chart Weather Telemetry Raw packets
 

This is the latest recevied weather packets stored in our database for station/object WX0ABE-13. If no packets are shown the sender has not sent any weather packets the latest 10 day(s).

<< 103 104 105 106 107 108 109 >>
Time Temp. Humidity Pressure Rain* Wind** Luminosity Snow
1787590937 32.78° C 27% 1019.4 hPa 0 mm - 603 W/m² -
1787590632 32.78° C 29% 1019.4 hPa 0 mm - 592 W/m² -
1787590327 32.78° C 29% 1019.4 hPa 0 mm - 582 W/m² -
1787590022 32.22° C 29% 1019.5 hPa 0 mm - 572 W/m² -
1787589719 32.22° C 29% 1019.4 hPa 0 mm - 563 W/m² -
1787589419 32.22° C 30% 1019.6 hPa 0 mm - 553 W/m² -
1787589115 32.22° C 29% 1019.4 hPa 0 mm - 541 W/m² -
1787588815 32.22° C 32% 1019.4 hPa 0 mm - 529 W/m² -
1787588512 31.67° C 31% 1019.6 hPa 0 mm - 520 W/m² -
1787588212 31.11° C 31% 1019.3 hPa 0 mm - 508 W/m² -
1787587907 31.11° C 31% 1019.4 hPa 0 mm - 490 W/m² -
1787587603 31.11° C 32% 1019.4 hPa 0 mm - 472 W/m² -
1787587297 30.56° C 33% 1019.4 hPa 0 mm - 468 W/m² -
1787586997 30° C 35% 1019.3 hPa 0 mm - 457 W/m² -
1787586692 30° C 33% 1019.1 hPa 0 mm - 452 W/m² -
1787586387 30° C 35% 1019.1 hPa 0 mm - 439 W/m² -
1787586083 28.89° C 37% 1019.1 hPa 0 mm - 426 W/m² -
1787585779 28.89° C 38% 1019.2 hPa 0 mm - 409 W/m² -
1787585474 27.78° C 41% 1019.3 hPa 0 mm - 404 W/m² -
1787585174 27.78° C 39% 1019.2 hPa 0 mm - 285 W/m² -
1787584869 27.78° C 40% 1018.9 hPa 0 mm - 174 W/m² -
1787584569 27.78° C 39% 1019.1 hPa 0 mm - 274 W/m² -
1787584262 27.78° C 42% 1018.9 hPa 0 mm - 156 W/m² -
1787583962 27.78° C 40% 1019 hPa 0 mm - 154 W/m² -
1787583657 27.78° C 40% 1018.9 hPa 0 mm - 168 W/m² -

* Rain latest hour (hover to see other rain measurements)
** Current wind speed in m/s (hover to see current wind gust speed)